Time;durP1;ratioP1;P1;durP2;ratioP2;P2;SDS_P1;SDS_P2;PMS_P1;PMS_P2;Temp;Humidity;BMP_temperature;BMP_pressure;BME280_temperature;BME280_humidity;BME280_pressure;Samples;Min_cycle;Max_cycle;Signal;HPM_P1;HPM_P2
2023/01/28 00:00:53;;;;;;;67.03;7.45;;;4.20;99.90;;;;;;4988109;28;20195;-85
2023/01/28 00:03:19;;;;;;;71.68;7.90;;;4.20;99.90;;;;;;4988509;28;20179;-85
2023/01/28 00:05:44;;;;;;;67.20;7.87;;;4.10;99.90;;;;;;4988620;28;20205;-85
2023/01/28 00:08:12;;;;;;;67.60;8.07;;;4.00;99.90;;;;;;4989041;28;20427;-85
2023/01/28 00:10:38;;;;;;;67.82;7.72;;;4.00;99.90;;;;;;4989688;28;20190;-85
2023/01/28 00:13:05;;;;;;;68.57;8.75;;;4.00;99.90;;;;;;4989458;28;20631;-85
2023/01/28 00:15:31;;;;;;;66.63;7.45;;;3.90;99.90;;;;;;4987933;28;20237;-85
2023/01/28 00:17:57;;;;;;;66.50;7.27;;;3.90;99.90;;;;;;4989613;28;20575;-85
2023/01/28 00:20:22;;;;;;;68.57;7.63;;;3.90;99.90;;;;;;4988420;28;20654;-85
2023/01/28 00:22:48;;;;;;;67.73;7.63;;;3.90;99.90;;;;;;4988447;28;20219;-85
2023/01/28 00:25:15;;;;;;;67.93;8.67;;;3.90;99.90;;;;;;4988549;28;20195;-85
2023/01/28 00:27:44;;;;;;;68.13;7.20;;;3.90;99.90;;;;;;4989796;28;20178;-85
2023/01/28 00:30:11;;;;;;;68.30;7.30;;;3.80;99.90;;;;;;4989977;28;20180;-85
2023/01/28 00:32:37;;;;;;;69.60;7.35;;;3.70;99.90;;;;;;4990006;28;20195;-85
2023/01/28 00:35:02;;;;;;;70.82;7.45;;;3.80;99.90;;;;;;4988979;28;20171;-85
2023/01/28 00:37:28;;;;;;;69.80;7.57;;;3.80;99.90;;;;;;4988083;28;20248;-85
2023/01/28 00:39:59;;;;;;;67.30;7.20;;;3.60;99.90;;;;;;4989147;28;20431;-85
2023/01/28 00:42:25;;;;;;;68.57;7.03;;;3.60;99.90;;;;;;4989357;28;20242;-85
2023/01/28 00:44:51;;;;;;;66.40;6.70;;;3.50;99.90;;;;;;4990001;28;20616;-85
2023/01/28 00:47:17;;;;;;;66.68;6.70;;;3.50;99.90;;;;;;4990216;28;20175;-84
2023/01/28 00:49:42;;;;;;;67.10;7.07;;;3.60;99.90;;;;;;4989491;28;20183;-85
2023/01/28 00:52:08;;;;;;;67.07;6.53;;;3.50;99.90;;;;;;4990155;28;20183;-85
2023/01/28 00:54:37;;;;;;;66.00;6.30;;;3.40;99.90;;;;;;4989515;28;20196;-85
2023/01/28 00:57:03;;;;;;;67.78;7.35;;;3.40;99.90;;;;;;4990078;28;20171;-85
2023/01/28 00:59:28;;;;;;;67.37;7.17;;;3.30;99.90;;;;;;4989696;28;20221;-85
2023/01/28 01:02:11;;;;;;;69.47;6.97;;;3.30;99.90;;;;;;4988047;28;20191;-85
2023/01/28 01:04:36;;;;;;;69.28;7.82;;;3.30;99.90;;;;;;4988694;28;20167;-85
2023/01/28 01:07:04;;;;;;;69.30;6.83;;;3.40;99.90;;;;;;4988783;28;20218;-85
2023/01/28 01:09:30;;;;;;;68.35;7.50;;;3.40;99.90;;;;;;4988636;28;20214;-85
2023/01/28 01:12:51;;;;;;;67.17;6.40;;;3.40;99.90;;;;;;5005511;27;4085924;-83
2023/01/28 01:15:18;;;;;;;69.00;7.22;;;3.40;99.90;;;;;;5108593;28;20178;-83
2023/01/28 01:17:47;;;;;;;68.53;7.63;;;3.40;99.90;;;;;;5108718;28;20197;-83
2023/01/28 01:20:25;;;;;;;70.97;8.18;;;3.40;99.90;;;;;;5124831;28;20167;-83
2023/01/28 01:22:51;;;;;;;68.65;8.15;;;3.30;99.90;;;;;;5087522;28;20174;-83
2023/01/28 01:25:20;;;;;;;69.15;7.93;;;3.30;99.90;;;;;;5088071;28;20159;-83
2023/01/28 01:27:49;;;;;;;67.45;7.40;;;3.30;99.90;;;;;;5087727;28;20214;-83
2023/01/28 01:30:16;;;;;;;70.38;8.18;;;3.40;99.90;;;;;;5105638;28;20164;-83
2023/01/28 01:32:51;;;;;;;71.32;8.52;;;3.30;99.90;;;;;;5087167;28;20210;-82
2023/01/28 01:35:19;;;;;;;70.85;8.50;;;3.30;99.90;;;;;;5105573;28;20492;-83
2023/01/28 01:37:45;;;;;;;79.93;8.05;;;3.30;99.90;;;;;;5105821;28;20257;-83
2023/01/28 01:40:11;;;;;;;71.43;7.07;;;3.20;99.90;;;;;;5105810;28;20163;-83
2023/01/28 01:42:37;;;;;;;68.72;7.90;;;3.10;99.90;;;;;;5106412;28;20401;-83
2023/01/28 01:45:05;;;;;;;67.07;7.73;;;3.10;99.90;;;;;;5087233;28;20168;-83
2023/01/28 01:47:41;;;;;;;68.82;8.32;;;3.00;99.90;;;;;;5087193;28;20417;-83
2023/01/28 01:50:15;;;;;;;71.07;7.13;;;3.00;99.90;;;;;;5105393;28;20185;-83
2023/01/28 01:52:42;;;;;;;66.82;7.32;;;3.10;99.90;;;;;;5105062;28;20185;-83
2023/01/28 01:55:17;;;;;;;68.25;6.60;;;3.10;99.90;;;;;;5086723;28;20538;-83
2023/01/28 01:57:51;;;;;;;68.13;7.55;;;3.00;99.90;;;;;;5104010;28;20186;-84
2023/01/28 02:00:17;;;;;;;70.55;8.07;;;3.00;99.90;;;;;;5104581;28;20540;-83
2023/01/28 02:02:51;;;;;;;67.95;6.75;;;2.90;99.90;;;;;;5085973;28;20171;-83
2023/01/28 02:05:23;;;;;;;69.38;7.97;;;3.00;99.90;;;;;;5087350;28;20194;-83
2023/01/28 02:10:43;;;;;;;69.05;8.10;;;2.90;99.90;;;;;;5104857;28;20332;-83
2023/01/28 02:13:09;;;;;;;71.43;8.52;;;3.00;99.90;;;;;;5084869;28;20195;-83
2023/01/28 02:15:38;;;;;;;67.33;7.50;;;2.90;99.90;;;;;;5086733;28;20164;-83
2023/01/28 02:18:07;;;;;;;67.65;8.18;;;2.90;99.90;;;;;;5086460;28;20494;-83
2023/01/28 02:21:13;;;;;;;70.38;8.27;;;2.90;99.90;;;;;;5086844;28;20186;-83
2023/01/28 02:23:53;;;;;;;69.72;9.40;;;2.90;99.90;;;;;;5093985;28;20190;-83
2023/01/28 02:26:47;;;;;;;70.90;9.13;;;2.90;99.90;;;;;;5073253;28;20281;-83
2023/01/28 02:29:35;;;;;;;73.78;8.95;;;2.90;99.90;;;;;;5072773;28;20175;-83
2023/01/28 02:32:45;;;;;;;70.32;8.18;;;2.90;99.90;;;;;;5090735;28;20196;-83
2023/01/28 02:35:25;;;;;;;70.57;8.85;;;2.80;99.90;;;;;;5060462;28;20179;-83
2023/01/28 02:38:08;;;;;;;69.03;9.15;;;2.70;99.90;;;;;;5090931;28;20164;-83
2023/01/28 02:41:05;;;;;;;71.53;9.27;;;2.60;99.90;;;;;;5072850;28;20191;-83
2023/01/28 02:43:41;;;;;;;72.07;9.60;;;2.60;99.90;;;;;;5072316;28;20164;-83
2023/01/28 02:49:10;;;;;;;72.00;9.43;;;2.70;99.90;;;;;;5090829;28;20162;-83
2023/01/28 02:51:39;;;;;;;71.20;10.77;;;2.70;99.90;;;;;;5073164;28;20199;-83
2023/01/28 02:54:13;;;;;;;73.90;9.65;;;2.60;99.90;;;;;;5072083;28;20239;-83
2023/01/28 02:56:50;;;;;;;75.65;10.43;;;2.50;99.90;;;;;;5090123;28;20147;-83
2023/01/28 02:59:30;;;;;;;71.93;9.95;;;2.50;99.90;;;;;;5090750;28;20155;-83
2023/01/28 03:02:11;;;;;;;71.25;10.15;;;2.50;99.90;;;;;;5090281;28;20192;-83
2023/01/28 03:04:56;;;;;;;71.50;11.82;;;2.50;99.90;;;;;;5089835;28;20149;-83
2023/01/28 03:07:24;;;;;;;72.40;13.57;;;2.50;99.90;;;;;;5072491;28;20250;-83
2023/01/28 03:09:52;;;;;;;74.93;10.90;;;2.50;99.90;;;;;;5089361;28;20283;-83
2023/01/28 03:38:41;;;;;;;78.10;10.40;;;2.60;99.90;;;;;;5090211;28;20159;-83
2023/01/28 03:41:10;;;;;;;73.90;11.65;;;2.60;99.90;;;;;;5089660;28;20746;-83
2023/01/28 03:43:36;;;;;;;71.25;10.98;;;2.70;99.90;;;;;;5072165;28;20164;-83
2023/01/28 03:46:02;;;;;;;74.70;11.00;;;2.70;99.90;;;;;;5089695;28;20195;-83
2023/01/28 03:48:28;;;;;;;71.35;9.63;;;2.60;99.90;;;;;;5072109;28;20421;-83
2023/01/28 03:50:55;;;;;;;71.80;10.23;;;2.60;99.90;;;;;;5071749;28;20195;-83
2023/01/28 03:53:21;;;;;;;71.82;10.88;;;2.60;99.90;;;;;;5089325;28;20401;-83
2023/01/28 03:55:50;;;;;;;71.72;11.02;;;2.60;99.90;;;;;;5071020;28;20168;-83
2023/01/28 03:58:17;;;;;;;75.97;10.75;;;2.70;99.90;;;;;;5087989;28;20167;-83
2023/01/28 04:00:45;;;;;;;70.78;10.40;;;2.70;99.90;;;;;;5088291;28;20222;-83
2023/01/28 04:03:17;;;;;;;70.63;10.27;;;2.70;99.90;;;;;;5088148;28;20168;-83
2023/01/28 04:06:05;;;;;;;70.32;10.32;;;2.70;99.90;;;;;;5056479;28;20182;-83
2023/01/28 04:08:34;;;;;;;69.82;8.93;;;2.80;99.90;;;;;;5071987;28;20160;-83
2023/01/28 04:11:15;;;;;;;70.35;10.38;;;2.80;99.90;;;;;;5089311;28;20244;-83
2023/01/28 04:13:42;;;;;;;71.13;9.25;;;2.80;99.90;;;;;;5089736;28;20161;-83
2023/01/28 04:16:09;;;;;;;68.70;9.50;;;2.90;99.90;;;;;;5089866;28;20567;-83
2023/01/28 04:18:37;;;;;;;70.65;9.18;;;2.80;99.90;;;;;;5088967;28;20217;-83
2023/01/28 04:21:05;;;;;;;70.40;9.25;;;2.80;99.90;;;;;;5072054;28;20192;-83
2023/01/28 04:23:40;;;;;;;68.97;8.77;;;2.90;99.90;;;;;;5089261;28;20185;-83
2023/01/28 04:26:07;;;;;;;72.03;9.82;;;2.90;99.90;;;;;;5089657;28;20148;-83
2023/01/28 04:28:33;;;;;;;73.28;10.52;;;2.90;99.90;;;;;;5088980;28;20170;-83
2023/01/28 04:31:04;;;;;;;71.57;9.70;;;2.90;99.90;;;;;;5088286;28;20195;-83
2023/01/28 04:33:32;;;;;;;71.88;9.88;;;2.90;99.90;;;;;;5071624;28;20406;-83
2023/01/28 04:36:00;;;;;;;69.63;8.70;;;3.00;99.90;;;;;;5088598;28;20216;-83
2023/01/28 04:38:54;;;;;;;71.15;10.00;;;3.00;99.90;;;;;;5089680;28;20171;-83
2023/01/28 04:41:23;;;;;;;72.70;9.45;;;3.00;99.90;;;;;;5089604;28;20209;-83
2023/01/28 04:43:55;;;;;;;71.75;9.63;;;2.90;99.90;;;;;;5073221;28;20171;-83
2023/01/28 04:46:20;;;;;;;73.55;9.40;;;2.90;99.90;;;;;;5071437;28;20195;-83
2023/01/28 04:48:49;;;;;;;70.27;8.67;;;2.90;99.90;;;;;;5070262;28;20172;-83
2023/01/28 04:51:27;;;;;;;73.22;9.52;;;2.90;99.90;;;;;;5070005;28;20203;-83
2023/01/28 04:53:53;;;;;;;71.63;10.35;;;2.90;99.90;;;;;;5089012;28;20175;-83
2023/01/28 04:56:24;;;;;;;72.10;10.23;;;2.80;99.90;;;;;;5070646;28;20163;-83
2023/01/28 04:58:49;;;;;;;71.40;10.02;;;2.80;99.90;;;;;;5088241;28;20842;-83
2023/01/28 05:01:21;;;;;;;76.90;10.43;;;2.80;99.90;;;;;;5087624;28;20192;-83
2023/01/28 05:03:49;;;;;;;72.15;9.55;;;2.80;99.90;;;;;;5087979;28;20156;-83
2023/01/28 05:06:15;;;;;;;71.35;10.05;;;2.80;99.90;;;;;;5069614;28;20180;-83
2023/01/28 05:08:45;;;;;;;74.47;11.03;;;2.90;99.90;;;;;;5069732;28;20167;-83
2023/01/28 05:11:12;;;;;;;73.00;9.68;;;2.90;99.90;;;;;;5087302;28;20517;-83
2023/01/28 05:13:38;;;;;;;71.70;10.07;;;2.90;99.90;;;;;;5088515;28;20149;-83
2023/01/28 05:16:05;;;;;;;71.93;10.50;;;2.90;99.90;;;;;;5087148;28;20159;-83
2023/01/28 05:18:31;;;;;;;72.13;10.60;;;2.90;99.90;;;;;;5087270;28;20218;-83
2023/01/28 05:20:57;;;;;;;71.20;10.37;;;2.90;99.90;;;;;;5087607;28;20188;-83
2023/01/28 05:23:23;;;;;;;73.32;11.30;;;2.90;99.90;;;;;;5088036;28;20533;-83
2023/01/28 05:25:49;;;;;;;72.03;10.80;;;2.90;99.90;;;;;;5087465;28;20508;-83
2023/01/28 05:28:28;;;;;;;71.27;9.63;;;2.90;99.90;;;;;;5156243;22;20178;-82
2023/01/28 05:31:19;;;;;;;71.40;9.55;;;2.80;99.90;;;;;;5081982;28;20465;-82
2023/01/28 05:33:54;;;;;;;70.47;8.93;;;2.80;99.90;;;;;;5082094;28;20628;-82
2023/01/28 05:36:44;;;;;;;72.35;8.90;;;2.80;99.90;;;;;;5064831;28;20163;-82
2023/01/28 05:39:34;;;;;;;68.68;7.68;;;2.90;99.90;;;;;;5082364;28;20167;-82
2023/01/28 05:42:07;;;;;;;71.53;9.90;;;2.90;99.90;;;;;;5081882;28;20179;-82
2023/01/28 05:44:43;;;;;;;70.63;9.20;;;2.90;99.90;;;;;;5081977;28;20172;-82
2023/01/28 05:47:12;;;;;;;70.22;9.30;;;2.80;99.90;;;;;;5063896;28;20625;-82
2023/01/28 05:49:45;;;;;;;71.63;9.30;;;2.90;99.90;;;;;;5081694;28;20160;-83
2023/01/28 05:52:42;;;;;;;70.07;9.93;;;2.90;99.90;;;;;;5082370;28;20570;-82
2023/01/28 05:55:19;;;;;;;70.53;8.63;;;2.90;99.90;;;;;;5073763;28;20176;-82
2023/01/28 05:58:31;;;;;;;69.78;8.52;;;2.90;99.90;;;;;;5063707;28;20222;-84
2023/01/28 06:01:19;;;;;;;69.30;8.98;;;2.90;99.90;;;;;;5048957;28;20705;-82
2023/01/28 06:04:10;;;;;;;73.75;10.18;;;2.80;99.90;;;;;;5083981;28;20174;-82
2023/01/28 06:07:20;;;;;;;70.25;8.05;;;2.90;99.90;;;;;;5083551;28;20270;-82
2023/01/28 06:10:21;;;;;;;70.88;9.48;;;2.90;99.90;;;;;;5076941;28;20179;-82
2023/01/28 06:13:27;;;;;;;72.90;10.25;;;2.80;99.90;;;;;;5041862;28;20215;-82
2023/01/28 06:16:19;;;;;;;71.15;8.88;;;2.80;99.90;;;;;;5021731;28;20192;-82
2023/01/28 06:18:47;;;;;;;70.40;9.95;;;2.80;99.90;;;;;;5023308;28;20166;-82
2023/01/28 06:21:24;;;;;;;73.03;11.88;;;2.90;99.90;;;;;;5072126;28;20230;-82
2023/01/28 06:24:22;;;;;;;70.25;10.13;;;2.90;99.90;;;;;;5084836;28;20243;-82
2023/01/28 06:26:56;;;;;;;72.25;10.93;;;2.90;99.90;;;;;;5084574;28;20144;-82
2023/01/28 06:29:27;;;;;;;69.30;9.60;;;2.90;99.90;;;;;;5083421;28;20144;-82
2023/01/28 06:32:06;;;;;;;71.68;10.25;;;2.90;99.90;;;;;;5082390;28;20206;-82
2023/01/28 06:34:53;;;;;;;73.40;12.75;;;2.90;99.90;;;;;;5082659;28;20182;-82
2023/01/28 06:37:19;;;;;;;71.07;10.35;;;2.80;99.90;;;;;;5082761;28;20162;-82
2023/01/28 06:39:53;;;;;;;73.60;10.37;;;2.80;99.90;;;;;;5082467;28;20169;-82
2023/01/28 06:42:27;;;;;;;71.88;8.93;;;2.80;99.90;;;;;;5083504;28;20183;-82
2023/01/28 06:45:16;;;;;;;71.28;9.38;;;2.70;99.90;;;;;;5083188;28;20155;-82
2023/01/28 06:47:50;;;;;;;73.22;10.60;;;2.70;99.90;;;;;;5083097;28;20156;-83
2023/01/28 06:50:28;;;;;;;69.97;11.15;;;2.80;99.90;;;;;;5083957;28;20164;-83
2023/01/28 06:53:00;;;;;;;73.10;13.07;;;2.90;99.90;;;;;;5064299;28;20195;-82
2023/01/28 06:56:01;;;;;;;73.63;11.15;;;2.90;99.90;;;;;;5063945;28;20527;-82
2023/01/28 06:59:12;;;;;;;71.97;10.93;;;2.80;99.90;;;;;;5071138;28;20184;-82
2023/01/28 07:01:49;;;;;;;75.22;11.27;;;2.90;99.90;;;;;;5028854;28;20290;-82
2023/01/28 07:05:01;;;;;;;73.95;12.00;;;2.80;99.90;;;;;;5082395;28;20155;-82
2023/01/28 07:07:43;;;;;;;71.18;11.70;;;2.90;99.90;;;;;;5081283;28;20206;-82
2023/01/28 07:10:19;;;;;;;76.38;11.20;;;2.80;99.90;;;;;;5062719;28;20194;-82
2023/01/28 07:16:19;;;;;;;74.93;12.70;;;2.90;99.90;;;;;;5047943;28;20669;-82
2023/01/28 07:19:52;;;;;;;80.93;12.95;;;2.80;99.90;;;;;;5076602;28;20171;-82
2023/01/28 07:22:56;;;;;;;78.50;14.73;;;2.80;99.90;;;;;;5042873;28;20195;-82
2023/01/28 07:25:28;;;;;;;81.43;16.08;;;2.90;99.90;;;;;;5018399;28;20191;-82
2023/01/28 07:31:16;;;;;;;80.60;16.00;;;2.90;99.90;;;;;;5017298;28;20223;-82
2023/01/28 07:33:58;;;;;;;79.78;14.65;;;2.90;99.90;;;;;;5073681;28;20195;-82
2023/01/28 07:36:36;;;;;;;79.75;13.60;;;2.90;99.90;;;;;;5080123;28;20580;-82
2023/01/28 07:39:07;;;;;;;84.57;16.08;;;2.90;99.90;;;;;;5079495;28;20171;-82
2023/01/28 07:41:46;;;;;;;78.40;13.00;;;2.90;99.90;;;;;;5061202;28;20194;-82
2023/01/28 07:44:31;;;;;;;79.80;14.45;;;2.90;99.90;;;;;;5060646;28;20164;-82
2023/01/28 07:47:02;;;;;;;80.50;15.15;;;2.90;99.90;;;;;;5061107;28;20156;-82
2023/01/28 07:49:48;;;;;;;77.93;14.00;;;2.90;99.90;;;;;;5078943;28;20217;-82
2023/01/28 07:52:14;;;;;;;78.22;14.50;;;2.80;99.90;;;;;;5079738;28;20195;-82
2023/01/28 07:55:00;;;;;;;;;;;;;;;;;;;;;
2023/01/28 07:57:59;;;;;;;77.22;13.88;;;2.90;99.90;;;;;;5079619;28;20231;-82
2023/01/28 08:00:38;;;;;;;79.10;13.43;;;2.90;99.90;;;;;;5077743;28;20184;-82
2023/01/28 08:03:29;;;;;;;79.07;13.32;;;3.00;99.90;;;;;;5079389;28;20581;-82
2023/01/28 08:05:57;;;;;;;73.93;13.40;;;3.00;99.90;;;;;;5078811;28;20253;-82
2023/01/28 08:08:31;;;;;;;76.43;13.90;;;2.90;99.90;;;;;;5079368;28;20164;-82
2023/01/28 08:11:33;;;;;;;78.45;15.38;;;2.80;99.90;;;;;;5079578;28;20559;-82
2023/01/28 08:14:19;;;;;;;76.65;14.82;;;2.80;99.90;;;;;;5079360;28;20211;-82
2023/01/28 08:16:51;;;;;;;76.25;13.13;;;2.90;99.90;;;;;;5061207;28;20168;-82
2023/01/28 08:19:31;;;;;;;75.75;12.93;;;2.90;99.90;;;;;;5078597;28;20203;-82
2023/01/28 08:22:23;;;;;;;78.88;14.00;;;2.90;99.90;;;;;;5078652;28;20195;-82
2023/01/28 08:25:16;;;;;;;77.15;13.13;;;2.90;99.90;;;;;;5072415;28;20187;-82
2023/01/28 08:27:50;;;;;;;77.55;14.25;;;2.90;99.90;;;;;;5078441;28;20172;-82
2023/01/28 08:34:00;;;;;;;79.20;15.38;;;2.90;99.90;;;;;;5016811;28;20232;-82
2023/01/28 08:36:28;;;;;;;75.35;13.85;;;2.80;99.90;;;;;;5078316;28;20176;-82
2023/01/28 08:39:02;;;;;;;77.90;15.75;;;2.80;99.90;;;;;;5060679;28;20179;-82
2023/01/28 08:41:36;;;;;;;80.43;15.07;;;2.80;99.90;;;;;;5078322;28;20178;-82
2023/01/28 08:44:07;;;;;;;79.75;14.35;;;2.80;99.90;;;;;;5078857;28;20162;-82
2023/01/28 08:47:01;;;;;;;77.68;15.93;;;2.80;99.90;;;;;;5060613;28;20158;-82
2023/01/28 08:49:33;;;;;;;79.00;14.27;;;2.80;99.90;;;;;;5054199;28;20172;-82
2023/01/28 08:52:01;;;;;;;77.95;13.70;;;2.80;99.90;;;;;;5078529;28;20195;-82
2023/01/28 08:54:39;;;;;;;77.90;14.38;;;2.90;99.90;;;;;;5078833;28;20283;-82
2023/01/28 08:57:13;;;;;;;77.03;14.85;;;2.80;99.90;;;;;;5079690;28;20159;-82
2023/01/28 08:59:48;;;;;;;82.50;16.08;;;2.90;99.90;;;;;;5079025;28;20156;-82
2023/01/28 09:02:42;;;;;;;83.88;16.52;;;2.90;99.90;;;;;;5077927;28;20653;-82
2023/01/28 09:08:29;;;;;;;81.88;16.73;;;2.80;99.90;;;;;;5021860;28;20191;-82
2023/01/28 09:11:03;;;;;;;81.43;16.90;;;2.80;99.90;;;;;;5077793;28;20271;-82
2023/01/28 09:13:29;;;;;;;84.28;16.58;;;2.70;99.90;;;;;;5078973;28;20144;-82
2023/01/28 09:16:03;;;;;;;84.30;17.30;;;2.70;99.90;;;;;;5060615;28;20643;-82
2023/01/28 09:18:31;;;;;;;85.43;18.77;;;2.70;99.90;;;;;;5078791;28;20195;-82
2023/01/28 09:21:17;;;;;;;82.50;17.80;;;2.70;99.90;;;;;;5077487;28;20222;-82
2023/01/28 09:24:01;;;;;;;93.13;18.30;;;2.70;99.90;;;;;;5078317;28;20522;-82
2023/01/28 09:26:26;;;;;;;85.50;18.83;;;2.70;99.90;;;;;;5077751;28;20146;-82
2023/01/28 09:28:55;;;;;;;85.13;18.33;;;2.80;99.90;;;;;;5078578;28;20175;-82
2023/01/28 09:31:31;;;;;;;86.72;19.30;;;2.80;99.90;;;;;;5077526;28;20195;-82
2023/01/28 09:34:02;;;;;;;85.85;18.92;;;2.80;99.90;;;;;;5063438;28;20168;-82
2023/01/28 09:37:07;;;;;;;85.00;18.25;;;2.70;99.90;;;;;;5081549;28;20250;-82
2023/01/28 09:39:57;;;;;;;86.50;17.63;;;2.70;99.90;;;;;;5081502;28;20171;-82
2023/01/28 09:43:02;;;;;;;82.80;16.77;;;2.70;99.90;;;;;;5073223;28;20179;-82
2023/01/28 09:46:24;;;;;;;;;;;;;;;;;;;;;
2023/01/28 09:49:55;;;;;;;83.63;17.70;;;2.70;99.90;;;;;;5015757;28;20199;-82
2023/01/28 09:52:34;;;;;;;;;;;;;;;;;;;;;
2023/01/28 09:55:47;;;;;;;82.00;17.40;;;2.70;99.90;;;;;;4942232;29;20187;-82
2023/01/28 09:58:26;;;;;;;83.53;16.55;;;2.60;99.90;;;;;;4970113;28;20183;-82
2023/01/28 10:01:28;;;;;;;82.55;16.25;;;2.60;99.90;;;;;;5057343;28;20204;-82
2023/01/28 10:04:15;;;;;;;84.45;16.75;;;2.50;99.90;;;;;;5082228;28;20171;-82
2023/01/28 10:07:07;;;;;;;83.10;16.75;;;2.50;99.90;;;;;;5063665;28;20246;-82
2023/01/28 10:10:13;;;;;;;83.10;16.95;;;2.60;99.90;;;;;;5081807;28;20152;-82
2023/01/28 10:13:26;;;;;;;80.43;14.82;;;2.70;99.90;;;;;;5081947;28;20180;-82
2023/01/28 10:16:31;;;;;;;93.10;20.55;;;2.70;99.90;;;;;;5064262;28;20160;-82
2023/01/28 10:19:27;;;;;;;82.65;18.90;;;2.70;69.60;;;;;;5081476;28;20160;-82
2023/01/28 10:22:38;;;;;;;82.95;18.75;;;2.70;39.80;;;;;;5080936;28;20180;-82
2023/01/28 10:25:19;;;;;;;81.63;16.80;;;2.80;34.50;;;;;;5061358;28;20262;-82
2023/01/28 10:27:47;;;;;;;84.75;19.38;;;2.90;32.10;;;;;;5080819;28;20231;-83
2023/01/28 10:30:26;;;;;;;85.70;19.10;;;2.80;22.10;;;;;;5081368;28;20202;-82
2023/01/28 10:35:56;;;;;;;84.70;16.65;;;2.80;23.80;;;;;;5039254;28;20654;-82
2023/01/28 10:38:51;;;;;;;86.97;18.00;;;2.90;23.40;;;;;;5080649;28;20175;-82
2023/01/28 10:41:46;;;;;;;85.60;17.90;;;2.90;22.50;;;;;;5063262;28;20199;-82
2023/01/28 10:44:59;;;;;;;86.22;17.50;;;2.90;22.50;;;;;;5061711;28;20183;-82
2023/01/28 10:49:10;;;;;;;;;;;;;;;;;;;;;
2023/01/28 10:51:33;;;;;;;87.45;17.42;;;2.80;20.70;;;;;;5054843;28;20210;-82
2023/01/28 10:53:59;;;;;;;82.95;18.33;;;2.90;21.70;;;;;;5080041;28;20168;-82
2023/01/28 10:56:34;;;;;;;87.57;17.98;;;2.90;20.90;;;;;;5080453;28;20179;-82
2023/01/28 10:59:28;;;;;;;83.88;17.40;;;3.00;18.20;;;;;;5062185;28;20159;-82
2023/01/28 11:02:13;;;;;;;87.20;18.45;;;2.90;16.90;;;;;;5080004;28;20184;-82
2023/01/28 11:04:59;;;;;;;83.47;16.88;;;2.90;15.80;;;;;;5080296;28;20145;-82
2023/01/28 11:07:35;;;;;;;77.28;14.80;;;2.90;16.30;;;;;;5079813;28;20168;-82
2023/01/28 11:10:36;;;;;;;84.00;16.45;;;2.80;17.10;;;;;;5080345;28;20183;-81
2023/01/28 11:13:04;;;;;;;85.70;17.38;;;2.80;16.20;;;;;;5059758;28;20204;-82
2023/01/28 11:16:11;;;;;;;81.75;17.55;;;2.90;15.80;;;;;;5080176;28;20638;-82
2023/01/28 11:18:53;;;;;;;80.93;14.85;;;2.80;13.20;;;;;;5080058;28;20524;-82
2023/01/28 11:21:28;;;;;;;83.57;16.77;;;2.80;13.20;;;;;;5080703;28;20183;-82
2023/01/28 11:24:12;;;;;;;88.95;18.55;;;2.80;13.60;;;;;;5079797;28;20231;-82
2023/01/28 11:26:53;;;;;;;82.18;18.33;;;2.80;9.20;;;;;;5079803;28;20214;-82
2023/01/28 11:29:33;;;;;;;79.07;16.33;;;2.90;6.60;;;;;;5249467;22;20223;-83
2023/01/28 11:32:00;;;;;;;81.00;16.40;;;2.90;5.90;;;;;;5059518;28;20189;-83
2023/01/28 11:34:34;;;;;;;81.05;16.10;;;2.90;5.10;;;;;;5041178;28;20255;-85
2023/01/28 11:37:17;;;;;;;82.97;16.52;;;2.90;1.20;;;;;;5059212;28;20152;-85
2023/01/28 11:39:43;;;;;;;80.18;14.88;;;3.00;6.70;;;;;;5042033;28;20516;-84
2023/01/28 11:42:18;;;;;;;81.63;15.70;;;3.10;1.50;;;;;;5059410;28;20216;-85
2023/01/28 11:44:45;;;;;;;82.38;16.25;;;3.20;1.00;;;;;;5041299;28;20444;-85
2023/01/28 11:47:32;;;;;;;80.03;15.27;;;3.20;1.00;;;;;;5059492;28;20207;-85
2023/01/28 11:50:42;;;;;;;81.25;15.43;;;3.20;1.00;;;;;;5059467;28;20157;-85
2023/01/28 11:53:44;;;;;;;82.25;14.95;;;3.20;1.00;;;;;;4997914;28;20190;-85
2023/01/28 11:56:37;;;;;;;80.60;14.88;;;3.00;1.00;;;;;;5058369;28;20157;-84
2023/01/28 11:59:06;;;;;;;83.00;15.93;;;2.90;1.00;;;;;;5058870;28;20156;-84
2023/01/28 12:01:31;;;;;;;81.53;15.75;;;3.00;1.00;;;;;;5058589;28;20194;-84
2023/01/28 12:04:09;;;;;;;82.30;16.40;;;3.00;1.00;;;;;;5041250;28;20172;-85
2023/01/28 12:06:53;;;;;;;82.55;17.08;;;3.00;1.00;;;;;;5040448;28;20168;-84
2023/01/28 12:09:43;;;;;;;84.20;15.82;;;3.00;1.00;;;;;;5058020;28;20661;-84
2023/01/28 12:12:52;;;;;;;81.95;14.98;;;3.00;1.00;;;;;;5058275;28;20259;-85
2023/01/28 12:15:39;;;;;;;86.88;16.42;;;2.90;1.00;;;;;;5059617;28;20625;-84
2023/01/28 12:18:40;;;;;;;86.25;15.90;;;3.00;1.00;;;;;;5060186;28;20168;-84
2023/01/28 12:21:32;;;;;;;81.22;15.90;;;3.00;1.00;;;;;;5058990;28;20186;-84
2023/01/28 12:24:41;;;;;;;82.28;16.80;;;3.10;1.00;;;;;;5030972;28;20184;-85
2023/01/28 12:27:34;;;;;;;84.53;16.20;;;3.00;1.00;;;;;;5041179;28;20253;-84
2023/01/28 12:30:26;;;;;;;82.57;16.10;;;3.00;1.00;;;;;;5050082;28;20275;-85
2023/01/28 12:33:24;;;;;;;82.35;15.65;;;3.00;1.00;;;;;;5059141;28;20181;-85
2023/01/28 12:36:21;;;;;;;79.40;14.00;;;3.10;1.00;;;;;;5024849;28;20302;-84
2023/01/28 12:38:55;;;;;;;85.30;16.65;;;3.20;1.00;;;;;;5040748;28;20270;-85
2023/01/28 12:41:27;;;;;;;78.38;14.00;;;3.20;1.00;;;;;;5058769;28;20251;-85
2023/01/28 12:43:55;;;;;;;82.57;15.88;;;3.20;1.00;;;;;;5058264;28;20157;-85
2023/01/28 12:46:37;;;;;;;81.68;15.15;;;3.20;1.00;;;;;;5057597;28;20163;-84
2023/01/28 12:49:13;;;;;;;83.88;15.50;;;3.10;1.00;;;;;;5057241;28;20165;-86
2023/01/28 12:51:57;;;;;;;83.05;15.02;;;3.00;1.00;;;;;;5058419;28;20194;-86
2023/01/28 12:55:05;;;;;;;80.53;15.63;;;3.00;1.00;;;;;;5041187;28;20164;-86
2023/01/28 12:57:33;;;;;;;82.03;14.82;;;3.10;1.00;;;;;;5057673;28;20156;-85
2023/01/28 13:00:14;;;;;;;87.28;16.30;;;3.00;1.00;;;;;;5040084;28;20171;-85
2023/01/28 13:02:44;;;;;;;86.20;17.08;;;2.90;1.00;;;;;;5057472;28;20176;-86
2023/01/28 13:05:13;;;;;;;82.40;16.77;;;2.90;1.00;;;;;;5057523;28;20149;-84
2023/01/28 13:08:02;;;;;;;80.80;16.15;;;3.00;1.00;;;;;;5058073;28;20168;-85
2023/01/28 13:10:41;;;;;;;82.05;14.20;;;3.00;1.00;;;;;;5039576;28;20248;-84
2023/01/28 13:13:12;;;;;;;82.28;15.45;;;3.20;1.00;;;;;;5058059;28;20280;-84
2023/01/28 13:15:42;;;;;;;87.22;17.45;;;3.20;1.00;;;;;;5040171;28;20169;-85
2023/01/28 13:18:27;;;;;;;87.72;19.00;;;3.20;1.00;;;;;;5039611;28;20173;-85
2023/01/28 13:20:53;;;;;;;80.05;16.35;;;3.20;1.00;;;;;;5057204;28;20694;-85
2023/01/28 13:23:26;;;;;;;84.57;16.77;;;3.30;1.00;;;;;;5057469;28;20164;-85
2023/01/28 13:25:53;;;;;;;79.20;15.43;;;3.40;1.00;;;;;;5058317;28;20188;-85
2023/01/28 13:28:31;;;;;;;84.75;17.00;;;3.60;1.00;;;;;;5058408;28;20164;-85
2023/01/28 13:31:07;;;;;;;82.10;15.93;;;3.70;1.00;;;;;;5057741;28;20216;-85
2023/01/28 13:33:39;;;;;;;84.70;15.75;;;3.80;1.00;;;;;;5040248;28;20707;-85
2023/01/28 13:36:17;;;;;;;83.10;16.08;;;3.60;1.00;;;;;;5058082;28;20230;-84
2023/01/28 13:38:44;;;;;;;81.40;16.33;;;3.60;1.00;;;;;;5057026;28;20169;-84
2023/01/28 13:41:10;;;;;;;85.20;15.73;;;3.60;1.00;;;;;;5057129;28;20187;-85
2023/01/28 13:43:38;;;;;;;82.77;15.80;;;3.20;1.00;;;;;;5057310;28;20169;-84
2023/01/28 13:46:14;;;;;;;82.22;16.88;;;3.10;1.00;;;;;;5057486;28;20169;-84
2023/01/28 13:48:56;;;;;;;84.65;17.08;;;3.00;1.00;;;;;;5057417;28;20172;-84
2023/01/28 13:51:44;;;;;;;90.68;16.17;;;3.00;1.00;;;;;;5057812;28;20227;-84
2023/01/28 13:54:19;;;;;;;83.10;15.25;;;2.90;1.00;;;;;;5057530;28;20162;-85
2023/01/28 13:57:00;;;;;;;83.15;16.15;;;3.00;1.00;;;;;;5057980;28;20145;-84
2023/01/28 14:00:01;;;;;;;80.72;15.40;;;3.30;1.00;;;;;;5039979;28;20654;-84
2023/01/28 14:02:48;;;;;;;79.20;14.20;;;3.40;1.00;;;;;;5057356;28;20149;-84
2023/01/28 14:05:43;;;;;;;81.85;14.95;;;3.50;1.00;;;;;;5057551;28;20175;-84
2023/01/28 14:08:12;;;;;;;82.25;16.30;;;3.50;1.00;;;;;;5039051;28;20172;-84
2023/01/28 14:10:59;;;;;;;81.35;14.00;;;3.40;1.00;;;;;;5056722;28;20247;-84
2023/01/28 14:13:40;;;;;;;82.28;14.65;;;3.50;1.00;;;;;;5039371;28;20160;-84
2023/01/28 14:16:24;;;;;;;79.57;14.68;;;3.70;1.00;;;;;;5039488;28;20167;-84
2023/01/28 14:18:51;;;;;;;79.22;16.00;;;3.60;1.00;;;;;;5058411;28;20223;-84
2023/01/28 14:21:19;;;;;;;79.40;15.48;;;3.70;1.00;;;;;;5060549;28;20246;-84
2023/01/28 14:23:53;;;;;;;83.28;16.88;;;3.40;1.00;;;;;;5060789;28;20168;-84
2023/01/28 14:26:46;;;;;;;80.97;16.80;;;3.30;1.00;;;;;;5043471;28;20168;-85
2023/01/28 14:29:20;;;;;;;85.65;18.00;;;3.30;1.00;;;;;;5042242;28;20188;-84
2023/01/28 14:31:46;;;;;;;83.63;18.52;;;3.20;1.00;;;;;;5060311;28;20187;-84
2023/01/28 14:34:27;;;;;;;84.67;17.37;;;3.30;1.00;;;;;;5042583;28;20161;-84
2023/01/28 14:36:56;;;;;;;86.68;16.40;;;3.40;1.00;;;;;;5044492;28;20411;-84